Forbes Road, Pennsylvania
Current Conditions -  °F | °C
As of 1:53 PM on Friday 24 Oct 2014 (Local Time) from KAGC Reporting Station
Clear Clear  
Wind Chill: 56°   Ceiling: Unl
Heat Index: 56°   Visibility: 10mi
Dew Point: 38°   Wind: 9mph
Humidity: 51%   Direction: 290°WNW
Pressure: 30.03"   Gusts: NA
Location:  40.35°N, 79.52°W
Report Text: KAGC 241753Z 29008KT 10SM CLR 13/03 A3003 RMK AO2 SLP176 T01330033 10133 20050 58019
Loading
Personal Weather Stations






























Interactive Weather Map
Tropical Storm Tracking
New forecast layout! Learn more

10-Day Weather Forecast

Advertisements
Track Severe Weather on mobile